sensor_id;sensor_type;location;lat;lon;timestamp;temperature;humidity
6988;DHT22;3534;49.960;8.018;2023-02-28T00:02:08;4.80;99.90
6988;DHT22;3534;49.960;8.018;2023-02-28T00:04:35;4.80;99.90
6988;DHT22;3534;49.960;8.018;2023-02-28T00:07:01;4.80;99.90
6988;DHT22;3534;49.960;8.018;2023-02-28T00:09:29;4.80;99.90
6988;DHT22;3534;49.960;8.018;2023-02-28T00:11:56;4.80;99.90
6988;DHT22;3534;49.960;8.018;2023-02-28T00:14:23;4.80;99.90
6988;DHT22;3534;49.960;8.018;2023-02-28T00:16:50;4.70;99.90
6988;DHT22;3534;49.960;8.018;2023-02-28T00:19:16;4.70;99.90
6988;DHT22;3534;49.960;8.018;2023-02-28T00:21:43;4.70;99.90
6988;DHT22;3534;49.960;8.018;2023-02-28T00:24:10;4.70;99.90
6988;DHT22;3534;49.960;8.018;2023-02-28T00:26:38;4.60;99.90
6988;DHT22;3534;49.960;8.018;2023-02-28T00:29:04;4.60;99.90
6988;DHT22;3534;49.960;8.018;2023-02-28T00:31:31;4.60;99.90
6988;DHT22;3534;49.960;8.018;2023-02-28T00:33:58;4.60;99.90
6988;DHT22;3534;49.960;8.018;2023-02-28T00:36:24;4.60;99.90
6988;DHT22;3534;49.960;8.018;2023-02-28T00:38:51;4.50;99.90
6988;DHT22;3534;49.960;8.018;2023-02-28T00:41:18;4.50;99.90
6988;DHT22;3534;49.960;8.018;2023-02-28T00:43:46;4.50;99.90
6988;DHT22;3534;49.960;8.018;2023-02-28T00:46:13;4.50;99.90
6988;DHT22;3534;49.960;8.018;2023-02-28T00:48:39;4.60;99.90
6988;DHT22;3534;49.960;8.018;2023-02-28T00:51:06;4.60;99.90
6988;DHT22;3534;49.960;8.018;2023-02-28T00:53:33;4.70;99.90
6988;DHT22;3534;49.960;8.018;2023-02-28T00:56:00;4.70;99.90
6988;DHT22;3534;49.960;8.018;2023-02-28T00:58:27;4.70;99.90
6988;DHT22;3534;49.960;8.018;2023-02-28T01:00:55;4.70;99.90
6988;DHT22;3534;49.960;8.018;2023-02-28T01:03:22;4.70;99.90
6988;DHT22;3534;49.960;8.018;2023-02-28T01:05:49;4.70;99.90
6988;DHT22;3534;49.960;8.018;2023-02-28T01:08:16;4.70;99.90
6988;DHT22;3534;49.960;8.018;2023-02-28T01:10:43;4.80;99.90
6988;DHT22;3534;49.960;8.018;2023-02-28T01:13:09;4.80;99.90
6988;DHT22;3534;49.960;8.018;2023-02-28T01:15:37;4.80;99.90
6988;DHT22;3534;49.960;8.018;2023-02-28T01:18:05;4.80;99.90
6988;DHT22;3534;49.960;8.018;2023-02-28T01:20:32;4.80;99.90
6988;DHT22;3534;49.960;8.018;2023-02-28T01:22:59;4.80;99.90
6988;DHT22;3534;49.960;8.018;2023-02-28T01:25:25;4.80;99.90
6988;DHT22;3534;49.960;8.018;2023-02-28T01:27:52;4.80;99.90
6988;DHT22;3534;49.960;8.018;2023-02-28T01:30:19;4.70;99.90
6988;DHT22;3534;49.960;8.018;2023-02-28T01:32:46;4.70;99.90
6988;DHT22;3534;49.960;8.018;2023-02-28T01:35:14;4.70;99.90
6988;DHT22;3534;49.960;8.018;2023-02-28T01:37:40;4.70;99.90
6988;DHT22;3534;49.960;8.018;2023-02-28T01:40:08;4.70;99.90
6988;DHT22;3534;49.960;8.018;2023-02-28T01:42:35;4.70;99.90
6988;DHT22;3534;49.960;8.018;2023-02-28T01:45:18;4.70;99.90
6988;DHT22;3534;49.960;8.018;2023-02-28T01:47:48;4.70;99.90
6988;DHT22;3534;49.960;8.018;2023-02-28T01:50:19;4.70;99.90
6988;DHT22;3534;49.960;8.018;2023-02-28T01:52:48;4.70;99.90
6988;DHT22;3534;49.960;8.018;2023-02-28T01:55:17;4.70;99.90
6988;DHT22;3534;49.960;8.018;2023-02-28T01:57:48;4.70;99.90
6988;DHT22;3534;49.960;8.018;2023-02-28T02:00:17;4.70;99.90
6988;DHT22;3534;49.960;8.018;2023-02-28T02:02:46;4.70;99.90
6988;DHT22;3534;49.960;8.018;2023-02-28T02:05:16;4.70;99.90
6988;DHT22;3534;49.960;8.018;2023-02-28T02:07:46;4.70;99.90
6988;DHT22;3534;49.960;8.018;2023-02-28T02:10:15;4.70;99.90
6988;DHT22;3534;49.960;8.018;2023-02-28T02:13:00;4.70;99.90
6988;DHT22;3534;49.960;8.018;2023-02-28T02:15:33;4.70;99.90
6988;DHT22;3534;49.960;8.018;2023-02-28T02:18:05;4.70;99.90
6988;DHT22;3534;49.960;8.018;2023-02-28T02:26:39;4.60;99.90
6988;DHT22;3534;49.960;8.018;2023-02-28T02:29:34;4.60;99.90
6988;DHT22;3534;49.960;8.018;2023-02-28T02:32:34;4.60;99.90
6988;DHT22;3534;49.960;8.018;2023-02-28T02:35:12;4.50;99.90
6988;DHT22;3534;49.960;8.018;2023-02-28T02:37:44;4.50;99.90
6988;DHT22;3534;49.960;8.018;2023-02-28T02:40:18;4.50;99.90
6988;DHT22;3534;49.960;8.018;2023-02-28T02:42:50;4.50;99.90
6988;DHT22;3534;49.960;8.018;2023-02-28T02:45:22;4.50;99.90
6988;DHT22;3534;49.960;8.018;2023-02-28T02:47:51;4.50;99.90
6988;DHT22;3534;49.960;8.018;2023-02-28T02:50:24;4.40;99.90
6988;DHT22;3534;49.960;8.018;2023-02-28T02:52:54;4.40;99.90
6988;DHT22;3534;49.960;8.018;2023-02-28T02:55:23;4.40;99.90
6988;DHT22;3534;49.960;8.018;2023-02-28T02:57:53;4.40;99.90
6988;DHT22;3534;49.960;8.018;2023-02-28T03:00:25;4.40;99.90
6988;DHT22;3534;49.960;8.018;2023-02-28T03:02:54;4.40;99.90
6988;DHT22;3534;49.960;8.018;2023-02-28T03:05:26;4.30;99.90
6988;DHT22;3534;49.960;8.018;2023-02-28T03:07:53;4.30;99.90
6988;DHT22;3534;49.960;8.018;2023-02-28T03:10:29;4.30;99.90
6988;DHT22;3534;49.960;8.018;2023-02-28T03:13:04;4.20;99.90
6988;DHT22;3534;49.960;8.018;2023-02-28T03:15:37;4.20;99.90
6988;DHT22;3534;49.960;8.018;2023-02-28T03:18:10;4.20;99.90
6988;DHT22;3534;49.960;8.018;2023-02-28T03:20:49;4.20;99.90
6988;DHT22;3534;49.960;8.018;2023-02-28T03:23:28;4.20;99.90
6988;DHT22;3534;49.960;8.018;2023-02-28T03:26:00;4.10;99.90
6988;DHT22;3534;49.960;8.018;2023-02-28T03:28:32;4.10;99.90
6988;DHT22;3534;49.960;8.018;2023-02-28T03:31:07;4.10;99.90
6988;DHT22;3534;49.960;8.018;2023-02-28T03:33:39;4.00;99.90
6988;DHT22;3534;49.960;8.018;2023-02-28T03:36:13;4.10;99.90
6988;DHT22;3534;49.960;8.018;2023-02-28T03:38:45;4.00;99.90
6988;DHT22;3534;49.960;8.018;2023-02-28T03:41:15;4.00;99.90
6988;DHT22;3534;49.960;8.018;2023-02-28T03:43:45;4.00;99.90
6988;DHT22;3534;49.960;8.018;2023-02-28T03:46:17;4.00;99.90
6988;DHT22;3534;49.960;8.018;2023-02-28T03:48:51;4.00;99.90
6988;DHT22;3534;49.960;8.018;2023-02-28T03:51:23;4.00;99.90
6988;DHT22;3534;49.960;8.018;2023-02-28T03:53:54;4.00;99.90
6988;DHT22;3534;49.960;8.018;2023-02-28T03:56:26;4.00;99.90
6988;DHT22;3534;49.960;8.018;2023-02-28T03:58:58;4.00;99.90
6988;DHT22;3534;49.960;8.018;2023-02-28T04:01:31;4.00;99.90
6988;DHT22;3534;49.960;8.018;2023-02-28T04:04:00;3.90;99.90
6988;DHT22;3534;49.960;8.018;2023-02-28T04:06:31;3.80;99.90
6988;DHT22;3534;49.960;8.018;2023-02-28T04:08:58;3.80;99.90
6988;DHT22;3534;49.960;8.018;2023-02-28T04:11:29;3.80;99.90
6988;DHT22;3534;49.960;8.018;2023-02-28T04:13:57;3.70;99.90
6988;DHT22;3534;49.960;8.018;2023-02-28T04:16:24;3.70;99.90
6988;DHT22;3534;49.960;8.018;2023-02-28T04:18:50;3.60;99.90
6988;DHT22;3534;49.960;8.018;2023-02-28T04:21:17;3.60;99.90
6988;DHT22;3534;49.960;8.018;2023-02-28T04:23:47;3.60;99.90
6988;DHT22;3534;49.960;8.018;2023-02-28T04:26:14;3.60;99.90
6988;DHT22;3534;49.960;8.018;2023-02-28T04:28:40;3.70;99.90
6988;DHT22;3534;49.960;8.018;2023-02-28T04:31:08;3.70;99.90
6988;DHT22;3534;49.960;8.018;2023-02-28T04:33:36;3.70;99.90
6988;DHT22;3534;49.960;8.018;2023-02-28T04:36:05;3.70;99.90
6988;DHT22;3534;49.960;8.018;2023-02-28T04:38:33;3.60;99.90
6988;DHT22;3534;49.960;8.018;2023-02-28T04:41:02;3.60;99.90
6988;DHT22;3534;49.960;8.018;2023-02-28T04:43:29;3.60;99.90
6988;DHT22;3534;49.960;8.018;2023-02-28T04:45:58;3.60;99.90
6988;DHT22;3534;49.960;8.018;2023-02-28T04:48:27;3.60;99.90
6988;DHT22;3534;49.960;8.018;2023-02-28T04:50:54;3.70;99.90
6988;DHT22;3534;49.960;8.018;2023-02-28T04:53:21;3.70;99.90
6988;DHT22;3534;49.960;8.018;2023-02-28T04:55:48;3.60;99.90
6988;DHT22;3534;49.960;8.018;2023-02-28T04:58:16;3.60;99.90
6988;DHT22;3534;49.960;8.018;2023-02-28T05:00:42;3.60;99.90
6988;DHT22;3534;49.960;8.018;2023-02-28T05:03:09;3.60;99.90
6988;DHT22;3534;49.960;8.018;2023-02-28T05:05:36;3.50;99.90
6988;DHT22;3534;49.960;8.018;2023-02-28T05:08:02;3.50;99.90
6988;DHT22;3534;49.960;8.018;2023-02-28T05:10:30;3.50;99.90
6988;DHT22;3534;49.960;8.018;2023-02-28T05:12:57;3.50;99.90
6988;DHT22;3534;49.960;8.018;2023-02-28T05:15:25;3.50;99.90
6988;DHT22;3534;49.960;8.018;2023-02-28T05:17:51;3.50;99.90
6988;DHT22;3534;49.960;8.018;2023-02-28T05:20:18;3.50;99.90
6988;DHT22;3534;49.960;8.018;2023-02-28T05:22:46;3.40;99.90
6988;DHT22;3534;49.960;8.018;2023-02-28T05:25:22;3.50;99.90
6988;DHT22;3534;49.960;8.018;2023-02-28T05:27:49;3.50;99.90
6988;DHT22;3534;49.960;8.018;2023-02-28T05:30:16;3.40;99.90
6988;DHT22;3534;49.960;8.018;2023-02-28T05:32:43;3.40;99.90
6988;DHT22;3534;49.960;8.018;2023-02-28T05:35:10;3.40;99.90
6988;DHT22;3534;49.960;8.018;2023-02-28T05:37:37;3.40;99.90
6988;DHT22;3534;49.960;8.018;2023-02-28T05:40:07;3.30;99.90
6988;DHT22;3534;49.960;8.018;2023-02-28T05:42:36;3.30;99.90
6988;DHT22;3534;49.960;8.018;2023-02-28T05:45:04;3.20;99.90
6988;DHT22;3534;49.960;8.018;2023-02-28T05:47:32;3.20;99.90
6988;DHT22;3534;49.960;8.018;2023-02-28T05:49:59;3.20;99.90
6988;DHT22;3534;49.960;8.018;2023-02-28T05:52:26;3.10;99.90
6988;DHT22;3534;49.960;8.018;2023-02-28T05:54:53;3.10;99.90
6988;DHT22;3534;49.960;8.018;2023-02-28T05:57:19;3.10;99.90
6988;DHT22;3534;49.960;8.018;2023-02-28T05:59:47;3.20;99.90
6988;DHT22;3534;49.960;8.018;2023-02-28T06:02:15;3.20;99.90
6988;DHT22;3534;49.960;8.018;2023-02-28T06:04:43;3.20;99.90
6988;DHT22;3534;49.960;8.018;2023-02-28T06:07:10;3.20;99.90
6988;DHT22;3534;49.960;8.018;2023-02-28T06:09:38;3.10;99.90
6988;DHT22;3534;49.960;8.018;2023-02-28T06:12:05;3.10;99.90
6988;DHT22;3534;49.960;8.018;2023-02-28T06:14:34;3.10;99.90
6988;DHT22;3534;49.960;8.018;2023-02-28T06:17:03;3.10;99.90
6988;DHT22;3534;49.960;8.018;2023-02-28T06:19:30;3.00;99.90
6988;DHT22;3534;49.960;8.018;2023-02-28T06:21:57;3.10;99.90
6988;DHT22;3534;49.960;8.018;2023-02-28T06:24:25;3.00;99.90
6988;DHT22;3534;49.960;8.018;2023-02-28T06:26:53;3.00;99.90
6988;DHT22;3534;49.960;8.018;2023-02-28T06:29:20;3.00;99.90
6988;DHT22;3534;49.960;8.018;2023-02-28T06:31:47;3.00;99.90
6988;DHT22;3534;49.960;8.018;2023-02-28T06:34:15;3.00;99.90
6988;DHT22;3534;49.960;8.018;2023-02-28T06:36:42;3.00;99.90
6988;DHT22;3534;49.960;8.018;2023-02-28T06:39:09;3.10;99.90
6988;DHT22;3534;49.960;8.018;2023-02-28T06:41:36;3.00;99.90
6988;DHT22;3534;49.960;8.018;2023-02-28T06:44:04;3.00;99.90
6988;DHT22;3534;49.960;8.018;2023-02-28T06:46:31;3.10;99.90
6988;DHT22;3534;49.960;8.018;2023-02-28T06:48:58;3.10;99.90
6988;DHT22;3534;49.960;8.018;2023-02-28T06:51:26;3.10;99.90
6988;DHT22;3534;49.960;8.018;2023-02-28T06:53:52;3.10;99.90
6988;DHT22;3534;49.960;8.018;2023-02-28T06:56:19;3.00;99.90
6988;DHT22;3534;49.960;8.018;2023-02-28T06:58:47;3.10;99.90
6988;DHT22;3534;49.960;8.018;2023-02-28T07:01:14;3.00;99.90
6988;DHT22;3534;49.960;8.018;2023-02-28T07:03:41;3.00;99.90
6988;DHT22;3534;49.960;8.018;2023-02-28T07:06:07;3.00;99.90
6988;DHT22;3534;49.960;8.018;2023-02-28T07:08:35;3.10;99.90
6988;DHT22;3534;49.960;8.018;2023-02-28T07:11:03;3.00;99.90
6988;DHT22;3534;49.960;8.018;2023-02-28T07:13:30;3.10;99.90
6988;DHT22;3534;49.960;8.018;2023-02-28T07:15:58;3.10;99.90
6988;DHT22;3534;49.960;8.018;2023-02-28T07:18:26;3.10;99.90
6988;DHT22;3534;49.960;8.018;2023-02-28T07:20:53;3.10;99.90
6988;DHT22;3534;49.960;8.018;2023-02-28T07:23:21;3.20;99.90
6988;DHT22;3534;49.960;8.018;2023-02-28T07:25:49;3.20;99.90
6988;DHT22;3534;49.960;8.018;2023-02-28T07:28:17;3.20;99.90
6988;DHT22;3534;49.960;8.018;2023-02-28T07:30:44;3.30;99.90
6988;DHT22;3534;49.960;8.018;2023-02-28T07:33:11;3.30;99.90
6988;DHT22;3534;49.960;8.018;2023-02-28T07:35:38;3.30;99.90
6988;DHT22;3534;49.960;8.018;2023-02-28T07:38:05;3.40;99.90
6988;DHT22;3534;49.960;8.018;2023-02-28T07:40:33;3.40;99.90
6988;DHT22;3534;49.960;8.018;2023-02-28T07:43:01;3.50;99.90
6988;DHT22;3534;49.960;8.018;2023-02-28T07:45:29;3.50;99.90
6988;DHT22;3534;49.960;8.018;2023-02-28T07:47:57;3.60;99.90
6988;DHT22;3534;49.960;8.018;2023-02-28T07:50:24;3.60;99.90
6988;DHT22;3534;49.960;8.018;2023-02-28T07:52:50;3.60;99.90
6988;DHT22;3534;49.960;8.018;2023-02-28T07:55:17;3.70;99.90
6988;DHT22;3534;49.960;8.018;2023-02-28T07:57:44;3.70;99.90
6988;DHT22;3534;49.960;8.018;2023-02-28T08:00:13;3.80;99.90
6988;DHT22;3534;49.960;8.018;2023-02-28T08:02:40;3.80;99.90
6988;DHT22;3534;49.960;8.018;2023-02-28T08:05:07;3.90;99.90
6988;DHT22;3534;49.960;8.018;2023-02-28T08:07:34;3.90;99.90
6988;DHT22;3534;49.960;8.018;2023-02-28T08:10:00;3.90;99.90
6988;DHT22;3534;49.960;8.018;2023-02-28T08:12:27;3.90;99.90
6988;DHT22;3534;49.960;8.018;2023-02-28T08:14:54;3.90;99.90
6988;DHT22;3534;49.960;8.018;2023-02-28T08:17:22;4.00;99.90
6988;DHT22;3534;49.960;8.018;2023-02-28T08:19:48;3.90;99.90
6988;DHT22;3534;49.960;8.018;2023-02-28T08:22:15;4.00;99.90
6988;DHT22;3534;49.960;8.018;2023-02-28T08:24:42;4.00;99.90
6988;DHT22;3534;49.960;8.018;2023-02-28T08:27:09;4.00;99.90
6988;DHT22;3534;49.960;8.018;2023-02-28T08:29:37;4.00;99.90
6988;DHT22;3534;49.960;8.018;2023-02-28T08:32:04;4.10;99.90
6988;DHT22;3534;49.960;8.018;2023-02-28T08:34:32;4.10;99.90
6988;DHT22;3534;49.960;8.018;2023-02-28T08:36:59;4.10;99.90
6988;DHT22;3534;49.960;8.018;2023-02-28T08:39:26;4.20;99.90
6988;DHT22;3534;49.960;8.018;2023-02-28T08:41:52;4.20;99.90
6988;DHT22;3534;49.960;8.018;2023-02-28T08:44:19;4.30;99.90
6988;DHT22;3534;49.960;8.018;2023-02-28T08:46:46;4.30;99.90
6988;DHT22;3534;49.960;8.018;2023-02-28T08:49:13;4.20;99.90
6988;DHT22;3534;49.960;8.018;2023-02-28T08:51:41;4.20;99.90
6988;DHT22;3534;49.960;8.018;2023-02-28T08:54:08;4.30;99.90
6988;DHT22;3534;49.960;8.018;2023-02-28T08:56:35;4.30;99.90
6988;DHT22;3534;49.960;8.018;2023-02-28T08:59:02;4.30;99.90
6988;DHT22;3534;49.960;8.018;2023-02-28T09:01:30;4.40;99.90
6988;DHT22;3534;49.960;8.018;2023-02-28T09:03:58;4.50;99.90
6988;DHT22;3534;49.960;8.018;2023-02-28T09:06:26;4.80;99.90
6988;DHT22;3534;49.960;8.018;2023-02-28T09:08:56;4.90;99.90
6988;DHT22;3534;49.960;8.018;2023-02-28T09:11:24;4.90;99.90
6988;DHT22;3534;49.960;8.018;2023-02-28T09:13:51;4.90;99.90
6988;DHT22;3534;49.960;8.018;2023-02-28T09:16:18;4.90;99.90
6988;DHT22;3534;49.960;8.018;2023-02-28T09:18:45;4.90;99.90
6988;DHT22;3534;49.960;8.018;2023-02-28T09:21:13;4.90;99.90
6988;DHT22;3534;49.960;8.018;2023-02-28T09:23:40;4.90;99.90
6988;DHT22;3534;49.960;8.018;2023-02-28T09:26:13;4.90;99.90
6988;DHT22;3534;49.960;8.018;2023-02-28T09:28:40;4.90;99.90
6988;DHT22;3534;49.960;8.018;2023-02-28T09:31:12;4.90;99.90
6988;DHT22;3534;49.960;8.018;2023-02-28T09:33:39;5.10;99.90
6988;DHT22;3534;49.960;8.018;2023-02-28T09:36:06;5.10;99.90
6988;DHT22;3534;49.960;8.018;2023-02-28T09:38:33;5.20;99.90
6988;DHT22;3534;49.960;8.018;2023-02-28T09:41:01;5.30;99.90
6988;DHT22;3534;49.960;8.018;2023-02-28T09:43:34;5.30;99.90
6988;DHT22;3534;49.960;8.018;2023-02-28T09:46:08;5.30;99.90
6988;DHT22;3534;49.960;8.018;2023-02-28T09:48:41;5.40;99.90
6988;DHT22;3534;49.960;8.018;2023-02-28T09:51:16;5.40;99.90
6988;DHT22;3534;49.960;8.018;2023-02-28T09:53:49;5.40;99.90
6988;DHT22;3534;49.960;8.018;2023-02-28T09:56:21;5.40;99.90
6988;DHT22;3534;49.960;8.018;2023-02-28T09:58:56;5.50;99.90
6988;DHT22;3534;49.960;8.018;2023-02-28T10:01:29;5.40;99.90
6988;DHT22;3534;49.960;8.018;2023-02-28T10:04:00;5.50;99.90
6988;DHT22;3534;49.960;8.018;2023-02-28T10:06:34;5.50;99.90
6988;DHT22;3534;49.960;8.018;2023-02-28T10:09:05;5.50;99.90
6988;DHT22;3534;49.960;8.018;2023-02-28T10:11:36;5.50;99.90
6988;DHT22;3534;49.960;8.018;2023-02-28T10:14:11;5.50;99.90
6988;DHT22;3534;49.960;8.018;2023-02-28T10:16:43;5.60;99.90
6988;DHT22;3534;49.960;8.018;2023-02-28T10:19:16;5.60;99.90
6988;DHT22;3534;49.960;8.018;2023-02-28T10:21:49;5.60;99.90
6988;DHT22;3534;49.960;8.018;2023-02-28T10:24:21;5.60;99.90
6988;DHT22;3534;49.960;8.018;2023-02-28T10:26:52;5.70;99.90
6988;DHT22;3534;49.960;8.018;2023-02-28T10:29:23;5.70;99.90
6988;DHT22;3534;49.960;8.018;2023-02-28T10:31:50;5.70;99.90
6988;DHT22;3534;49.960;8.018;2023-02-28T10:34:17;5.70;99.90
6988;DHT22;3534;49.960;8.018;2023-02-28T10:36:44;5.80;99.90
6988;DHT22;3534;49.960;8.018;2023-02-28T10:39:35;5.80;99.90
6988;DHT22;3534;49.960;8.018;2023-02-28T10:42:03;5.90;99.90
6988;DHT22;3534;49.960;8.018;2023-02-28T10:44:32;6.00;99.90
6988;DHT22;3534;49.960;8.018;2023-02-28T10:46:58;5.90;99.90
6988;DHT22;3534;49.960;8.018;2023-02-28T10:49:26;6.00;99.90
6988;DHT22;3534;49.960;8.018;2023-02-28T10:51:56;6.10;99.90
6988;DHT22;3534;49.960;8.018;2023-02-28T10:54:26;6.20;99.90
6988;DHT22;3534;49.960;8.018;2023-02-28T10:57:08;6.30;99.90
6988;DHT22;3534;49.960;8.018;2023-02-28T10:59:36;6.40;99.90
6988;DHT22;3534;49.960;8.018;2023-02-28T11:02:35;6.60;99.90
6988;DHT22;3534;49.960;8.018;2023-02-28T11:05:10;6.60;99.90
6988;DHT22;3534;49.960;8.018;2023-02-28T11:07:51;6.80;99.90
6988;DHT22;3534;49.960;8.018;2023-02-28T11:10:20;6.90;99.90
6988;DHT22;3534;49.960;8.018;2023-02-28T11:12:47;6.90;99.90
6988;DHT22;3534;49.960;8.018;2023-02-28T11:15:24;6.90;99.90
6988;DHT22;3534;49.960;8.018;2023-02-28T11:17:57;7.00;99.90
6988;DHT22;3534;49.960;8.018;2023-02-28T11:20:26;7.30;99.90
6988;DHT22;3534;49.960;8.018;2023-02-28T11:22:55;7.50;99.90
6988;DHT22;3534;49.960;8.018;2023-02-28T11:25:25;7.60;99.90
6988;DHT22;3534;49.960;8.018;2023-02-28T11:27:54;7.70;99.90
6988;DHT22;3534;49.960;8.018;2023-02-28T11:30:27;7.80;99.90
6988;DHT22;3534;49.960;8.018;2023-02-28T11:32:56;8.00;99.90
6988;DHT22;3534;49.960;8.018;2023-02-28T11:35:26;8.00;99.90
6988;DHT22;3534;49.960;8.018;2023-02-28T11:37:53;8.10;99.90
6988;DHT22;3534;49.960;8.018;2023-02-28T11:40:27;8.20;99.90
6988;DHT22;3534;49.960;8.018;2023-02-28T11:43:05;8.40;99.90
6988;DHT22;3534;49.960;8.018;2023-02-28T11:45:49;8.60;99.90
6988;DHT22;3534;49.960;8.018;2023-02-28T11:48:27;8.80;99.90
6988;DHT22;3534;49.960;8.018;2023-02-28T11:51:03;8.90;99.90
6988;DHT22;3534;49.960;8.018;2023-02-28T11:54:07;9.00;99.90
6988;DHT22;3534;49.960;8.018;2023-02-28T11:56:38;9.00;99.90
6988;DHT22;3534;49.960;8.018;2023-02-28T12:02:20;9.20;99.90
6988;DHT22;3534;49.960;8.018;2023-02-28T12:04:55;9.30;99.90
6988;DHT22;3534;49.960;8.018;2023-02-28T12:07:30;9.40;99.90
6988;DHT22;3534;49.960;8.018;2023-02-28T12:10:02;9.50;99.90
6988;DHT22;3534;49.960;8.018;2023-02-28T12:12:38;9.80;99.90
6988;DHT22;3534;49.960;8.018;2023-02-28T12:15:47;10.00;99.90
6988;DHT22;3534;49.960;8.018;2023-02-28T12:18:28;10.40;99.90
6988;DHT22;3534;49.960;8.018;2023-02-28T12:21:08;10.60;99.90
6988;DHT22;3534;49.960;8.018;2023-02-28T12:23:52;10.90;99.90
6988;DHT22;3534;49.960;8.018;2023-02-28T12:26:31;11.30;99.90
6988;DHT22;3534;49.960;8.018;2023-02-28T12:29:09;11.50;99.90
6988;DHT22;3534;49.960;8.018;2023-02-28T12:31:40;11.70;99.90
6988;DHT22;3534;49.960;8.018;2023-02-28T12:34:12;12.00;99.90
6988;DHT22;3534;49.960;8.018;2023-02-28T12:36:41;12.10;99.90
6988;DHT22;3534;49.960;8.018;2023-02-28T12:39:13;12.50;99.90
6988;DHT22;3534;49.960;8.018;2023-02-28T12:41:45;12.70;99.90
6988;DHT22;3534;49.960;8.018;2023-02-28T12:44:17;12.80;99.90
6988;DHT22;3534;49.960;8.018;2023-02-28T12:46:49;12.90;99.90
6988;DHT22;3534;49.960;8.018;2023-02-28T12:49:19;13.10;99.90
6988;DHT22;3534;49.960;8.018;2023-02-28T12:51:49;13.30;99.90
6988;DHT22;3534;49.960;8.018;2023-02-28T12:54:22;13.40;99.90
6988;DHT22;3534;49.960;8.018;2023-02-28T12:56:56;13.50;99.90
6988;DHT22;3534;49.960;8.018;2023-02-28T12:59:34;13.70;99.90
6988;DHT22;3534;49.960;8.018;2023-02-28T13:02:24;14.00;99.90
6988;DHT22;3534;49.960;8.018;2023-02-28T13:05:19;14.10;99.90
6988;DHT22;3534;49.960;8.018;2023-02-28T13:10:50;14.50;99.90
6988;DHT22;3534;49.960;8.018;2023-02-28T13:13:21;14.50;99.90
6988;DHT22;3534;49.960;8.018;2023-02-28T13:16:12;14.50;99.90
6988;DHT22;3534;49.960;8.018;2023-02-28T13:18:42;14.70;99.90
6988;DHT22;3534;49.960;8.018;2023-02-28T13:21:22;14.80;92.20
6988;DHT22;3534;49.960;8.018;2023-02-28T13:24:02;14.90;99.90
6988;DHT22;3534;49.960;8.018;2023-02-28T13:29:35;15.00;99.90
6988;DHT22;3534;49.960;8.018;2023-02-28T13:35:36;15.20;99.90
6988;DHT22;3534;49.960;8.018;2023-02-28T13:38:17;15.10;97.20
6988;DHT22;3534;49.960;8.018;2023-02-28T13:40:45;15.30;99.90
6988;DHT22;3534;49.960;8.018;2023-02-28T13:43:16;15.50;96.20
6988;DHT22;3534;49.960;8.018;2023-02-28T13:46:06;15.70;99.90
6988;DHT22;3534;49.960;8.018;2023-02-28T13:48:34;15.80;99.90
6988;DHT22;3534;49.960;8.018;2023-02-28T13:51:40;15.80;99.90
6988;DHT22;3534;49.960;8.018;2023-02-28T13:54:18;16.00;98.30
6988;DHT22;3534;49.960;8.018;2023-02-28T13:57:02;16.20;99.90
6988;DHT22;3534;49.960;8.018;2023-02-28T13:59:37;16.30;99.10
6988;DHT22;3534;49.960;8.018;2023-02-28T14:02:37;16.50;99.90
6988;DHT22;3534;49.960;8.018;2023-02-28T14:05:13;16.60;99.90
6988;DHT22;3534;49.960;8.018;2023-02-28T14:07:45;16.60;99.90
6988;DHT22;3534;49.960;8.018;2023-02-28T14:10:22;16.60;99.90
6988;DHT22;3534;49.960;8.018;2023-02-28T14:12:58;16.70;95.10
6988;DHT22;3534;49.960;8.018;2023-02-28T14:15:46;16.90;99.90
6988;DHT22;3534;49.960;8.018;2023-02-28T14:18:18;17.00;99.90
6988;DHT22;3534;49.960;8.018;2023-02-28T14:20:47;16.90;99.90
6988;DHT22;3534;49.960;8.018;2023-02-28T14:23:19;16.90;95.80
6988;DHT22;3534;49.960;8.018;2023-02-28T14:25:55;17.10;99.90
6988;DHT22;3534;49.960;8.018;2023-02-28T14:28:41;17.10;99.90
6988;DHT22;3534;49.960;8.018;2023-02-28T14:31:13;17.20;99.90
6988;DHT22;3534;49.960;8.018;2023-02-28T14:33:57;17.10;97.90
6988;DHT22;3534;49.960;8.018;2023-02-28T14:36:30;17.30;99.90
6988;DHT22;3534;49.960;8.018;2023-02-28T14:39:01;17.40;99.90
6988;DHT22;3534;49.960;8.018;2023-02-28T14:41:33;17.60;93.00
6988;DHT22;3534;49.960;8.018;2023-02-28T14:44:14;17.70;99.90
6988;DHT22;3534;49.960;8.018;2023-02-28T14:46:43;17.70;99.30
6988;DHT22;3534;49.960;8.018;2023-02-28T14:49:15;17.70;99.90
6988;DHT22;3534;49.960;8.018;2023-02-28T14:51:43;17.80;99.90
6988;DHT22;3534;49.960;8.018;2023-02-28T14:54:14;18.00;99.90
6988;DHT22;3534;49.960;8.018;2023-02-28T14:56:42;18.00;99.90
6988;DHT22;3534;49.960;8.018;2023-02-28T14:59:24;18.00;99.90
6988;DHT22;3534;49.960;8.018;2023-02-28T15:01:52;18.20;99.90
6988;DHT22;3534;49.960;8.018;2023-02-28T15:04:25;18.20;99.90
6988;DHT22;3534;49.960;8.018;2023-02-28T15:07:09;18.30;99.90
6988;DHT22;3534;49.960;8.018;2023-02-28T15:09:36;18.20;99.90
6988;DHT22;3534;49.960;8.018;2023-02-28T15:12:03;18.10;99.90
6988;DHT22;3534;49.960;8.018;2023-02-28T15:14:32;18.00;99.90
6988;DHT22;3534;49.960;8.018;2023-02-28T15:17:02;18.10;99.90
6988;DHT22;3534;49.960;8.018;2023-02-28T15:19:33;18.10;99.90
6988;DHT22;3534;49.960;8.018;2023-02-28T15:22:04;18.10;99.90
6988;DHT22;3534;49.960;8.018;2023-02-28T15:24:37;18.20;99.90
6988;DHT22;3534;49.960;8.018;2023-02-28T15:27:09;18.30;99.90
6988;DHT22;3534;49.960;8.018;2023-02-28T15:29:45;18.20;99.90
6988;DHT22;3534;49.960;8.018;2023-02-28T15:32:24;18.30;99.90
6988;DHT22;3534;49.960;8.018;2023-02-28T15:34:52;18.30;99.90
6988;DHT22;3534;49.960;8.018;2023-02-28T15:37:33;18.10;99.90
6988;DHT22;3534;49.960;8.018;2023-02-28T15:40:13;18.10;99.90
6988;DHT22;3534;49.960;8.018;2023-02-28T15:42:41;18.00;99.90
6988;DHT22;3534;49.960;8.018;2023-02-28T15:45:28;18.10;99.90
6988;DHT22;3534;49.960;8.018;2023-02-28T15:47:55;17.90;99.90
6988;DHT22;3534;49.960;8.018;2023-02-28T15:50:22;17.90;99.90
6988;DHT22;3534;49.960;8.018;2023-02-28T15:52:50;17.60;97.90
6988;DHT22;3534;49.960;8.018;2023-02-28T15:55:19;17.40;99.90
6988;DHT22;3534;49.960;8.018;2023-02-28T15:57:47;17.10;99.90
6988;DHT22;3534;49.960;8.018;2023-02-28T16:00:20;16.70;99.90
6988;DHT22;3534;49.960;8.018;2023-02-28T16:02:49;16.30;99.90
6988;DHT22;3534;49.960;8.018;2023-02-28T16:05:22;15.80;92.40
6988;DHT22;3534;49.960;8.018;2023-02-28T16:07:54;15.30;90.40
6988;DHT22;3534;49.960;8.018;2023-02-28T16:10:22;15.00;95.20
6988;DHT22;3534;49.960;8.018;2023-02-28T16:12:53;14.70;88.50
6988;DHT22;3534;49.960;8.018;2023-02-28T16:15:22;14.50;92.10
6988;DHT22;3534;49.960;8.018;2023-02-28T16:17:51;14.30;98.00
6988;DHT22;3534;49.960;8.018;2023-02-28T16:20:19;14.10;98.90
6988;DHT22;3534;49.960;8.018;2023-02-28T16:22:46;13.90;98.20
6988;DHT22;3534;49.960;8.018;2023-02-28T16:25:13;13.80;93.60
6988;DHT22;3534;49.960;8.018;2023-02-28T16:27:42;13.60;99.90
6988;DHT22;3534;49.960;8.018;2023-02-28T16:30:15;13.40;96.90
6988;DHT22;3534;49.960;8.018;2023-02-28T16:32:44;13.20;99.90
6988;DHT22;3534;49.960;8.018;2023-02-28T16:35:12;13.00;99.90
6988;DHT22;3534;49.960;8.018;2023-02-28T16:37:39;13.00;99.90
6988;DHT22;3534;49.960;8.018;2023-02-28T16:40:08;12.80;99.90
6988;DHT22;3534;49.960;8.018;2023-02-28T16:42:37;12.70;99.90
6988;DHT22;3534;49.960;8.018;2023-02-28T16:45:05;12.70;99.90
6988;DHT22;3534;49.960;8.018;2023-02-28T16:47:32;12.40;99.90
6988;DHT22;3534;49.960;8.018;2023-02-28T16:49:59;12.30;96.60
6988;DHT22;3534;49.960;8.018;2023-02-28T16:52:27;12.30;99.90
6988;DHT22;3534;49.960;8.018;2023-02-28T16:54:53;12.20;99.90
6988;DHT22;3534;49.960;8.018;2023-02-28T16:57:22;12.10;99.90